sensor_id;sensor_type;location;lat;lon;timestamp;P1;durP1;ratioP1;P2;durP2;ratioP2
69841;SDS011;57138;51.326;-0.068;2023-02-04T00:01:54;18.48;;;5.78;;
69841;SDS011;57138;51.326;-0.068;2023-02-04T00:04:20;19.17;;;6.40;;
69841;SDS011;57138;51.326;-0.068;2023-02-04T00:06:45;15.90;;;6.35;;
69841;SDS011;57138;51.326;-0.068;2023-02-04T00:09:11;18.60;;;5.72;;
69841;SDS011;57138;51.326;-0.068;2023-02-04T00:11:39;17.92;;;5.82;;
69841;SDS011;57138;51.326;-0.068;2023-02-04T00:14:05;16.42;;;5.90;;
69841;SDS011;57138;51.326;-0.068;2023-02-04T00:16:30;15.00;;;5.35;;
69841;SDS011;57138;51.326;-0.068;2023-02-04T00:18:56;13.38;;;5.65;;
69841;SDS011;57138;51.326;-0.068;2023-02-04T00:21:21;13.55;;;6.38;;
69841;SDS011;57138;51.326;-0.068;2023-02-04T00:24:02;24.40;;;7.78;;
69841;SDS011;57138;51.326;-0.068;2023-02-04T00:26:28;16.90;;;5.95;;
69841;SDS011;57138;51.326;-0.068;2023-02-04T00:28:56;12.20;;;6.13;;
69841;SDS011;57138;51.326;-0.068;2023-02-04T00:31:22;16.98;;;6.13;;
69841;SDS011;57138;51.326;-0.068;2023-02-04T00:33:47;23.88;;;6.30;;
69841;SDS011;57138;51.326;-0.068;2023-02-04T00:36:13;16.17;;;5.93;;
69841;SDS011;57138;51.326;-0.068;2023-02-04T00:38:40;18.80;;;6.45;;
69841;SDS011;57138;51.326;-0.068;2023-02-04T00:41:06;16.73;;;6.55;;
69841;SDS011;57138;51.326;-0.068;2023-02-04T00:43:31;16.45;;;7.00;;
69841;SDS011;57138;51.326;-0.068;2023-02-04T00:45:57;25.25;;;6.32;;
69841;SDS011;57138;51.326;-0.068;2023-02-04T00:48:22;19.55;;;7.15;;
69841;SDS011;57138;51.326;-0.068;2023-02-04T00:50:47;18.08;;;6.72;;
69841;SDS011;57138;51.326;-0.068;2023-02-04T00:53:14;21.35;;;7.40;;
69841;SDS011;57138;51.326;-0.068;2023-02-04T00:55:39;20.95;;;7.70;;
69841;SDS011;57138;51.326;-0.068;2023-02-04T00:58:07;22.67;;;7.25;;
69841;SDS011;57138;51.326;-0.068;2023-02-04T01:00:32;23.35;;;7.82;;
69841;SDS011;57138;51.326;-0.068;2023-02-04T01:02:58;25.58;;;7.53;;
69841;SDS011;57138;51.326;-0.068;2023-02-04T01:05:24;17.25;;;6.82;;
69841;SDS011;57138;51.326;-0.068;2023-02-04T01:07:49;17.48;;;7.00;;
69841;SDS011;57138;51.326;-0.068;2023-02-04T01:10:15;27.17;;;7.20;;
69841;SDS011;57138;51.326;-0.068;2023-02-04T01:12:41;17.42;;;6.72;;
69841;SDS011;57138;51.326;-0.068;2023-02-04T01:15:07;17.65;;;7.55;;
69841;SDS011;57138;51.326;-0.068;2023-02-04T01:17:33;18.25;;;6.80;;
69841;SDS011;57138;51.326;-0.068;2023-02-04T01:20:06;22.80;;;8.38;;
69841;SDS011;57138;51.326;-0.068;2023-02-04T01:22:33;20.10;;;7.18;;
69841;SDS011;57138;51.326;-0.068;2023-02-04T01:24:58;22.40;;;6.72;;
69841;SDS011;57138;51.326;-0.068;2023-02-04T01:27:24;17.70;;;6.50;;
69841;SDS011;57138;51.326;-0.068;2023-02-04T01:29:49;22.00;;;6.65;;
69841;SDS011;57138;51.326;-0.068;2023-02-04T01:32:15;13.75;;;6.93;;
69841;SDS011;57138;51.326;-0.068;2023-02-04T01:34:40;18.77;;;6.53;;
69841;SDS011;57138;51.326;-0.068;2023-02-04T01:37:06;25.45;;;8.10;;
69841;SDS011;57138;51.326;-0.068;2023-02-04T01:39:31;16.63;;;5.75;;
69841;SDS011;57138;51.326;-0.068;2023-02-04T01:41:58;14.07;;;6.43;;
69841;SDS011;57138;51.326;-0.068;2023-02-04T01:44:25;21.67;;;6.55;;
69841;SDS011;57138;51.326;-0.068;2023-02-04T01:46:51;21.33;;;7.55;;
69841;SDS011;57138;51.326;-0.068;2023-02-04T01:49:17;14.18;;;6.63;;
69841;SDS011;57138;51.326;-0.068;2023-02-04T01:51:43;19.65;;;7.05;;
69841;SDS011;57138;51.326;-0.068;2023-02-04T01:54:10;17.23;;;7.22;;
69841;SDS011;57138;51.326;-0.068;2023-02-04T01:56:36;20.73;;;7.07;;
69841;SDS011;57138;51.326;-0.068;2023-02-04T01:59:13;18.27;;;6.90;;
69841;SDS011;57138;51.326;-0.068;2023-02-04T02:01:41;20.08;;;6.93;;
69841;SDS011;57138;51.326;-0.068;2023-02-04T02:04:09;20.23;;;6.38;;
69841;SDS011;57138;51.326;-0.068;2023-02-04T02:06:38;18.08;;;7.30;;
69841;SDS011;57138;51.326;-0.068;2023-02-04T02:09:12;22.55;;;7.35;;
69841;SDS011;57138;51.326;-0.068;2023-02-04T02:11:37;20.80;;;6.85;;
69841;SDS011;57138;51.326;-0.068;2023-02-04T02:14:03;17.88;;;6.70;;
69841;SDS011;57138;51.326;-0.068;2023-02-04T02:16:29;24.63;;;6.82;;
69841;SDS011;57138;51.326;-0.068;2023-02-04T02:18:54;18.48;;;6.90;;
69841;SDS011;57138;51.326;-0.068;2023-02-04T02:21:27;17.15;;;6.72;;
69841;SDS011;57138;51.326;-0.068;2023-02-04T02:23:59;18.08;;;6.75;;
69841;SDS011;57138;51.326;-0.068;2023-02-04T02:26:27;18.85;;;7.63;;
69841;SDS011;57138;51.326;-0.068;2023-02-04T02:28:52;19.73;;;7.47;;
69841;SDS011;57138;51.326;-0.068;2023-02-04T02:31:19;20.00;;;7.25;;
69841;SDS011;57138;51.326;-0.068;2023-02-04T02:33:46;16.17;;;6.38;;
69841;SDS011;57138;51.326;-0.068;2023-02-04T02:36:12;18.13;;;7.38;;
69841;SDS011;57138;51.326;-0.068;2023-02-04T02:38:39;19.40;;;8.32;;
69841;SDS011;57138;51.326;-0.068;2023-02-04T02:41:05;17.98;;;7.22;;
69841;SDS011;57138;51.326;-0.068;2023-02-04T02:43:32;20.77;;;7.00;;
69841;SDS011;57138;51.326;-0.068;2023-02-04T02:45:59;19.70;;;6.70;;
69841;SDS011;57138;51.326;-0.068;2023-02-04T02:48:25;18.33;;;6.43;;
69841;SDS011;57138;51.326;-0.068;2023-02-04T02:50:51;23.73;;;7.60;;
69841;SDS011;57138;51.326;-0.068;2023-02-04T02:53:18;19.67;;;7.22;;
69841;SDS011;57138;51.326;-0.068;2023-02-04T02:55:44;20.13;;;7.05;;
69841;SDS011;57138;51.326;-0.068;2023-02-04T02:58:15;20.20;;;8.38;;
69841;SDS011;57138;51.326;-0.068;2023-02-04T03:00:56;15.82;;;7.00;;
69841;SDS011;57138;51.326;-0.068;2023-02-04T03:03:23;22.08;;;6.82;;
69841;SDS011;57138;51.326;-0.068;2023-02-04T03:05:52;25.13;;;8.23;;
69841;SDS011;57138;51.326;-0.068;2023-02-04T03:08:22;21.95;;;8.55;;
69841;SDS011;57138;51.326;-0.068;2023-02-04T03:10:47;17.58;;;8.88;;
69841;SDS011;57138;51.326;-0.068;2023-02-04T03:13:13;19.80;;;8.93;;
69841;SDS011;57138;51.326;-0.068;2023-02-04T03:15:43;20.95;;;9.80;;
69841;SDS011;57138;51.326;-0.068;2023-02-04T03:18:11;19.40;;;9.07;;
69841;SDS011;57138;51.326;-0.068;2023-02-04T03:20:41;20.67;;;8.27;;
69841;SDS011;57138;51.326;-0.068;2023-02-04T03:23:11;20.17;;;9.48;;
69841;SDS011;57138;51.326;-0.068;2023-02-04T03:25:37;25.27;;;8.93;;
69841;SDS011;57138;51.326;-0.068;2023-02-04T03:28:03;18.30;;;8.07;;
69841;SDS011;57138;51.326;-0.068;2023-02-04T03:30:29;18.55;;;9.48;;
69841;SDS011;57138;51.326;-0.068;2023-02-04T03:32:57;22.98;;;10.07;;
69841;SDS011;57138;51.326;-0.068;2023-02-04T03:35:23;29.25;;;11.45;;
69841;SDS011;57138;51.326;-0.068;2023-02-04T03:37:48;22.77;;;9.65;;
69841;SDS011;57138;51.326;-0.068;2023-02-04T03:40:14;21.95;;;10.50;;
69841;SDS011;57138;51.326;-0.068;2023-02-04T03:42:40;23.75;;;11.20;;
69841;SDS011;57138;51.326;-0.068;2023-02-04T03:45:05;24.30;;;11.02;;
69841;SDS011;57138;51.326;-0.068;2023-02-04T03:47:31;23.58;;;10.52;;
69841;SDS011;57138;51.326;-0.068;2023-02-04T03:50:00;27.13;;;11.30;;
69841;SDS011;57138;51.326;-0.068;2023-02-04T03:52:26;23.25;;;10.88;;
69841;SDS011;57138;51.326;-0.068;2023-02-04T03:54:51;23.77;;;11.18;;
69841;SDS011;57138;51.326;-0.068;2023-02-04T03:57:16;19.92;;;10.68;;
69841;SDS011;57138;51.326;-0.068;2023-02-04T03:59:42;21.08;;;10.77;;
69841;SDS011;57138;51.326;-0.068;2023-02-04T04:02:07;30.13;;;12.07;;
69841;SDS011;57138;51.326;-0.068;2023-02-04T04:04:33;26.92;;;11.50;;
69841;SDS011;57138;51.326;-0.068;2023-02-04T04:06:58;28.45;;;12.75;;
69841;SDS011;57138;51.326;-0.068;2023-02-04T04:09:24;28.00;;;11.30;;
69841;SDS011;57138;51.326;-0.068;2023-02-04T04:11:49;23.45;;;11.77;;
69841;SDS011;57138;51.326;-0.068;2023-02-04T04:14:15;29.42;;;11.88;;
69841;SDS011;57138;51.326;-0.068;2023-02-04T04:16:40;24.40;;;11.48;;
69841;SDS011;57138;51.326;-0.068;2023-02-04T04:19:05;26.75;;;13.10;;
69841;SDS011;57138;51.326;-0.068;2023-02-04T04:21:31;23.75;;;13.52;;
69841;SDS011;57138;51.326;-0.068;2023-02-04T04:23:56;29.10;;;12.43;;
69841;SDS011;57138;51.326;-0.068;2023-02-04T04:26:22;26.98;;;12.55;;
69841;SDS011;57138;51.326;-0.068;2023-02-04T04:28:47;37.22;;;15.68;;
69841;SDS011;57138;51.326;-0.068;2023-02-04T04:31:12;28.88;;;13.73;;
69841;SDS011;57138;51.326;-0.068;2023-02-04T04:33:38;24.75;;;13.52;;
69841;SDS011;57138;51.326;-0.068;2023-02-04T04:36:04;30.02;;;12.50;;
69841;SDS011;57138;51.326;-0.068;2023-02-04T04:38:30;24.55;;;13.00;;
69841;SDS011;57138;51.326;-0.068;2023-02-04T04:40:56;22.48;;;13.02;;
69841;SDS011;57138;51.326;-0.068;2023-02-04T04:43:21;27.98;;;12.73;;
69841;SDS011;57138;51.326;-0.068;2023-02-04T04:45:47;28.27;;;13.05;;
69841;SDS011;57138;51.326;-0.068;2023-02-04T04:48:12;28.13;;;13.50;;
69841;SDS011;57138;51.326;-0.068;2023-02-04T04:50:37;32.03;;;14.27;;
69841;SDS011;57138;51.326;-0.068;2023-02-04T04:53:03;26.98;;;13.35;;
69841;SDS011;57138;51.326;-0.068;2023-02-04T04:55:28;26.98;;;12.20;;
69841;SDS011;57138;51.326;-0.068;2023-02-04T04:57:54;29.13;;;12.65;;
69841;SDS011;57138;51.326;-0.068;2023-02-04T05:00:20;22.60;;;12.27;;
69841;SDS011;57138;51.326;-0.068;2023-02-04T05:02:47;27.35;;;13.13;;
69841;SDS011;57138;51.326;-0.068;2023-02-04T05:05:13;25.45;;;12.48;;
69841;SDS011;57138;51.326;-0.068;2023-02-04T05:07:38;25.50;;;12.23;;
69841;SDS011;57138;51.326;-0.068;2023-02-04T05:10:04;24.10;;;12.77;;
69841;SDS011;57138;51.326;-0.068;2023-02-04T05:12:30;27.25;;;13.43;;
69841;SDS011;57138;51.326;-0.068;2023-02-04T05:14:56;23.75;;;12.10;;
69841;SDS011;57138;51.326;-0.068;2023-02-04T05:17:24;27.15;;;12.00;;
69841;SDS011;57138;51.326;-0.068;2023-02-04T05:19:50;24.65;;;12.73;;
69841;SDS011;57138;51.326;-0.068;2023-02-04T05:22:15;26.52;;;12.13;;
69841;SDS011;57138;51.326;-0.068;2023-02-04T05:24:40;19.73;;;11.57;;
69841;SDS011;57138;51.326;-0.068;2023-02-04T05:27:06;22.33;;;11.43;;
69841;SDS011;57138;51.326;-0.068;2023-02-04T05:29:31;21.20;;;10.85;;
69841;SDS011;57138;51.326;-0.068;2023-02-04T05:31:57;22.27;;;11.10;;
69841;SDS011;57138;51.326;-0.068;2023-02-04T05:34:22;22.48;;;10.88;;
69841;SDS011;57138;51.326;-0.068;2023-02-04T05:36:48;21.10;;;10.13;;
69841;SDS011;57138;51.326;-0.068;2023-02-04T05:39:13;23.23;;;9.32;;
69841;SDS011;57138;51.326;-0.068;2023-02-04T05:41:39;15.15;;;8.65;;
69841;SDS011;57138;51.326;-0.068;2023-02-04T05:44:07;22.73;;;9.13;;
69841;SDS011;57138;51.326;-0.068;2023-02-04T05:46:32;20.30;;;8.80;;
69841;SDS011;57138;51.326;-0.068;2023-02-04T05:48:58;18.90;;;8.50;;
69841;SDS011;57138;51.326;-0.068;2023-02-04T05:51:23;22.17;;;9.10;;
69841;SDS011;57138;51.326;-0.068;2023-02-04T05:53:49;14.95;;;9.07;;
69841;SDS011;57138;51.326;-0.068;2023-02-04T05:56:16;16.15;;;9.23;;
69841;SDS011;57138;51.326;-0.068;2023-02-04T05:58:42;21.05;;;8.90;;
69841;SDS011;57138;51.326;-0.068;2023-02-04T06:01:07;14.52;;;7.95;;
69841;SDS011;57138;51.326;-0.068;2023-02-04T06:03:32;18.05;;;8.63;;
69841;SDS011;57138;51.326;-0.068;2023-02-04T06:05:58;16.60;;;8.20;;
69841;SDS011;57138;51.326;-0.068;2023-02-04T06:08:24;15.60;;;7.95;;
69841;SDS011;57138;51.326;-0.068;2023-02-04T06:10:49;17.33;;;8.20;;
69841;SDS011;57138;51.326;-0.068;2023-02-04T06:13:14;18.50;;;8.63;;
69841;SDS011;57138;51.326;-0.068;2023-02-04T06:15:40;17.08;;;8.30;;
69841;SDS011;57138;51.326;-0.068;2023-02-04T06:18:05;17.08;;;8.25;;
69841;SDS011;57138;51.326;-0.068;2023-02-04T06:20:34;14.23;;;7.50;;
69841;SDS011;57138;51.326;-0.068;2023-02-04T06:22:59;14.57;;;8.60;;
69841;SDS011;57138;51.326;-0.068;2023-02-04T06:25:25;16.65;;;8.63;;
69841;SDS011;57138;51.326;-0.068;2023-02-04T06:27:50;12.77;;;7.97;;
69841;SDS011;57138;51.326;-0.068;2023-02-04T06:30:16;14.25;;;8.15;;
69841;SDS011;57138;51.326;-0.068;2023-02-04T06:32:42;18.15;;;8.93;;
69841;SDS011;57138;51.326;-0.068;2023-02-04T06:35:10;22.25;;;8.55;;
69841;SDS011;57138;51.326;-0.068;2023-02-04T06:37:37;15.05;;;7.32;;
69841;SDS011;57138;51.326;-0.068;2023-02-04T06:40:06;13.40;;;7.85;;
69841;SDS011;57138;51.326;-0.068;2023-02-04T06:42:35;13.27;;;8.07;;
69841;SDS011;57138;51.326;-0.068;2023-02-04T06:45:01;14.85;;;7.63;;
69841;SDS011;57138;51.326;-0.068;2023-02-04T06:47:27;15.48;;;7.65;;
69841;SDS011;57138;51.326;-0.068;2023-02-04T06:49:52;12.70;;;7.95;;
69841;SDS011;57138;51.326;-0.068;2023-02-04T06:52:18;12.75;;;8.13;;
69841;SDS011;57138;51.326;-0.068;2023-02-04T06:54:43;16.60;;;7.75;;
69841;SDS011;57138;51.326;-0.068;2023-02-04T06:57:12;17.48;;;7.65;;
69841;SDS011;57138;51.326;-0.068;2023-02-04T06:59:38;17.17;;;8.20;;
69841;SDS011;57138;51.326;-0.068;2023-02-04T07:02:07;18.98;;;8.55;;
69841;SDS011;57138;51.326;-0.068;2023-02-04T07:04:35;14.57;;;8.05;;
69841;SDS011;57138;51.326;-0.068;2023-02-04T07:07:00;15.23;;;7.82;;
69841;SDS011;57138;51.326;-0.068;2023-02-04T07:09:26;13.55;;;7.63;;
69841;SDS011;57138;51.326;-0.068;2023-02-04T07:11:52;13.00;;;7.55;;
69841;SDS011;57138;51.326;-0.068;2023-02-04T07:14:18;17.40;;;7.88;;
69841;SDS011;57138;51.326;-0.068;2023-02-04T07:16:43;14.63;;;8.32;;
69841;SDS011;57138;51.326;-0.068;2023-02-04T07:19:09;17.20;;;7.95;;
69841;SDS011;57138;51.326;-0.068;2023-02-04T07:21:34;15.35;;;8.73;;
69841;SDS011;57138;51.326;-0.068;2023-02-04T07:24:00;15.00;;;7.43;;
69841;SDS011;57138;51.326;-0.068;2023-02-04T07:26:25;14.07;;;8.13;;
69841;SDS011;57138;51.326;-0.068;2023-02-04T07:28:51;12.35;;;7.03;;
69841;SDS011;57138;51.326;-0.068;2023-02-04T07:31:17;18.48;;;7.75;;
69841;SDS011;57138;51.326;-0.068;2023-02-04T07:33:42;23.75;;;8.48;;
69841;SDS011;57138;51.326;-0.068;2023-02-04T07:36:08;13.43;;;7.90;;
69841;SDS011;57138;51.326;-0.068;2023-02-04T07:38:33;21.60;;;9.00;;
69841;SDS011;57138;51.326;-0.068;2023-02-04T07:40:59;15.45;;;8.27;;
69841;SDS011;57138;51.326;-0.068;2023-02-04T07:43:24;13.05;;;7.45;;
69841;SDS011;57138;51.326;-0.068;2023-02-04T07:45:49;13.20;;;8.13;;
69841;SDS011;57138;51.326;-0.068;2023-02-04T07:48:15;20.10;;;8.48;;
69841;SDS011;57138;51.326;-0.068;2023-02-04T07:50:40;14.40;;;7.93;;
69841;SDS011;57138;51.326;-0.068;2023-02-04T07:53:06;12.95;;;7.65;;
69841;SDS011;57138;51.326;-0.068;2023-02-04T07:55:32;14.15;;;7.63;;
69841;SDS011;57138;51.326;-0.068;2023-02-04T07:58:00;14.07;;;7.05;;
69841;SDS011;57138;51.326;-0.068;2023-02-04T08:00:26;16.50;;;7.82;;
69841;SDS011;57138;51.326;-0.068;2023-02-04T08:02:52;16.30;;;8.07;;
69841;SDS011;57138;51.326;-0.068;2023-02-04T08:05:17;12.32;;;7.78;;
69841;SDS011;57138;51.326;-0.068;2023-02-04T08:07:44;13.10;;;6.97;;
69841;SDS011;57138;51.326;-0.068;2023-02-04T08:10:10;12.35;;;6.97;;
69841;SDS011;57138;51.326;-0.068;2023-02-04T08:12:36;16.17;;;7.55;;
69841;SDS011;57138;51.326;-0.068;2023-02-04T08:15:02;13.95;;;8.65;;
69841;SDS011;57138;51.326;-0.068;2023-02-04T08:17:27;15.00;;;7.93;;
69841;SDS011;57138;51.326;-0.068;2023-02-04T08:19:53;15.90;;;7.18;;
69841;SDS011;57138;51.326;-0.068;2023-02-04T08:22:19;13.32;;;7.57;;
69841;SDS011;57138;51.326;-0.068;2023-02-04T08:24:44;13.70;;;7.25;;
69841;SDS011;57138;51.326;-0.068;2023-02-04T08:27:10;11.48;;;6.80;;
69841;SDS011;57138;51.326;-0.068;2023-02-04T08:29:35;11.45;;;7.63;;
69841;SDS011;57138;51.326;-0.068;2023-02-04T08:32:01;10.70;;;7.07;;
69841;SDS011;57138;51.326;-0.068;2023-02-04T08:34:28;12.00;;;7.40;;
69841;SDS011;57138;51.326;-0.068;2023-02-04T08:36:53;13.45;;;7.15;;
69841;SDS011;57138;51.326;-0.068;2023-02-04T08:39:19;15.15;;;7.45;;
69841;SDS011;57138;51.326;-0.068;2023-02-04T08:41:44;11.95;;;6.68;;
69841;SDS011;57138;51.326;-0.068;2023-02-04T08:44:10;16.02;;;7.38;;
69841;SDS011;57138;51.326;-0.068;2023-02-04T08:46:35;19.75;;;8.23;;
69841;SDS011;57138;51.326;-0.068;2023-02-04T08:49:01;15.00;;;7.10;;
69841;SDS011;57138;51.326;-0.068;2023-02-04T08:51:29;14.18;;;6.65;;
69841;SDS011;57138;51.326;-0.068;2023-02-04T08:53:55;11.80;;;6.75;;
69841;SDS011;57138;51.326;-0.068;2023-02-04T08:56:20;11.82;;;6.93;;
69841;SDS011;57138;51.326;-0.068;2023-02-04T08:58:46;14.13;;;7.13;;
69841;SDS011;57138;51.326;-0.068;2023-02-04T09:01:12;13.48;;;7.47;;
69841;SDS011;57138;51.326;-0.068;2023-02-04T09:03:38;11.15;;;7.07;;
69841;SDS011;57138;51.326;-0.068;2023-02-04T09:06:04;14.50;;;6.75;;
69841;SDS011;57138;51.326;-0.068;2023-02-04T09:08:30;10.77;;;6.57;;
69841;SDS011;57138;51.326;-0.068;2023-02-04T09:10:56;19.40;;;7.35;;
69841;SDS011;57138;51.326;-0.068;2023-02-04T09:13:22;11.38;;;6.90;;
69841;SDS011;57138;51.326;-0.068;2023-02-04T09:15:48;9.32;;;6.38;;
69841;SDS011;57138;51.326;-0.068;2023-02-04T09:18:16;10.50;;;6.28;;
69841;SDS011;57138;51.326;-0.068;2023-02-04T09:20:46;10.27;;;6.20;;
69841;SDS011;57138;51.326;-0.068;2023-02-04T09:23:12;11.35;;;5.85;;
69841;SDS011;57138;51.326;-0.068;2023-02-04T09:25:38;9.95;;;5.70;;
69841;SDS011;57138;51.326;-0.068;2023-02-04T09:28:05;10.25;;;5.70;;
69841;SDS011;57138;51.326;-0.068;2023-02-04T09:30:33;13.50;;;5.53;;
69841;SDS011;57138;51.326;-0.068;2023-02-04T09:32:59;9.77;;;5.50;;
69841;SDS011;57138;51.326;-0.068;2023-02-04T09:35:25;6.82;;;4.35;;
69841;SDS011;57138;51.326;-0.068;2023-02-04T09:37:51;9.82;;;5.53;;
69841;SDS011;57138;51.326;-0.068;2023-02-04T09:40:17;7.75;;;4.55;;
69841;SDS011;57138;51.326;-0.068;2023-02-04T09:42:44;8.75;;;3.97;;
69841;SDS011;57138;51.326;-0.068;2023-02-04T09:45:25;9.57;;;4.35;;
69841;SDS011;57138;51.326;-0.068;2023-02-04T09:47:52;7.50;;;4.20;;
69841;SDS011;57138;51.326;-0.068;2023-02-04T09:50:21;7.82;;;4.20;;
69841;SDS011;57138;51.326;-0.068;2023-02-04T09:52:50;9.07;;;4.45;;
69841;SDS011;57138;51.326;-0.068;2023-02-04T09:55:19;10.77;;;4.13;;
69841;SDS011;57138;51.326;-0.068;2023-02-04T09:57:46;6.32;;;3.80;;
69841;SDS011;57138;51.326;-0.068;2023-02-04T10:02:46;10.98;;;3.60;;
69841;SDS011;57138;51.326;-0.068;2023-02-04T10:05:12;6.90;;;3.00;;
69841;SDS011;57138;51.326;-0.068;2023-02-04T10:07:43;8.25;;;3.63;;
69841;SDS011;57138;51.326;-0.068;2023-02-04T10:10:19;7.65;;;2.95;;
69841;SDS011;57138;51.326;-0.068;2023-02-04T10:12:47;8.95;;;3.05;;
69841;SDS011;57138;51.326;-0.068;2023-02-04T10:15:16;8.13;;;3.03;;
69841;SDS011;57138;51.326;-0.068;2023-02-04T10:17:46;9.27;;;2.95;;
69841;SDS011;57138;51.326;-0.068;2023-02-04T10:20:19;9.10;;;2.60;;
69841;SDS011;57138;51.326;-0.068;2023-02-04T10:22:46;5.30;;;2.08;;
69841;SDS011;57138;51.326;-0.068;2023-02-04T10:25:15;9.50;;;3.13;;
69841;SDS011;57138;51.326;-0.068;2023-02-04T10:27:53;7.35;;;2.50;;
69841;SDS011;57138;51.326;-0.068;2023-02-04T10:30:36;6.97;;;2.80;;
69841;SDS011;57138;51.326;-0.068;2023-02-04T10:33:12;9.07;;;2.40;;
69841;SDS011;57138;51.326;-0.068;2023-02-04T10:35:49;9.57;;;2.70;;
69841;SDS011;57138;51.326;-0.068;2023-02-04T10:38:16;7.25;;;2.40;;
69841;SDS011;57138;51.326;-0.068;2023-02-04T10:40:42;7.43;;;2.35;;
69841;SDS011;57138;51.326;-0.068;2023-02-04T10:43:15;5.13;;;2.13;;
69841;SDS011;57138;51.326;-0.068;2023-02-04T10:45:46;6.95;;;2.88;;
69841;SDS011;57138;51.326;-0.068;2023-02-04T10:48:19;8.15;;;3.28;;
69841;SDS011;57138;51.326;-0.068;2023-02-04T10:50:46;4.30;;;2.13;;
69841;SDS011;57138;51.326;-0.068;2023-02-04T10:53:14;7.00;;;1.92;;
69841;SDS011;57138;51.326;-0.068;2023-02-04T10:56:01;6.38;;;2.28;;
69841;SDS011;57138;51.326;-0.068;2023-02-04T10:58:28;6.45;;;1.90;;
69841;SDS011;57138;51.326;-0.068;2023-02-04T11:00:59;7.25;;;2.30;;
69841;SDS011;57138;51.326;-0.068;2023-02-04T11:03:26;6.10;;;2.47;;
69841;SDS011;57138;51.326;-0.068;2023-02-04T11:05:58;7.82;;;2.67;;
69841;SDS011;57138;51.326;-0.068;2023-02-04T11:08:43;5.63;;;2.53;;
69841;SDS011;57138;51.326;-0.068;2023-02-04T11:11:30;7.03;;;2.60;;
69841;SDS011;57138;51.326;-0.068;2023-02-04T11:17:18;8.05;;;3.00;;
69841;SDS011;57138;51.326;-0.068;2023-02-04T11:26:49;5.50;;;1.70;;
69841;SDS011;57138;51.326;-0.068;2023-02-04T11:29:36;9.52;;;1.50;;
69841;SDS011;57138;51.326;-0.068;2023-02-04T11:38:00;6.65;;;1.60;;
69841;SDS011;57138;51.326;-0.068;2023-02-04T11:40:27;6.32;;;1.83;;
69841;SDS011;57138;51.326;-0.068;2023-02-04T11:43:02;11.13;;;2.63;;
69841;SDS011;57138;51.326;-0.068;2023-02-04T11:45:42;5.10;;;2.00;;
69841;SDS011;57138;51.326;-0.068;2023-02-04T11:48:19;6.97;;;2.42;;
69841;SDS011;57138;51.326;-0.068;2023-02-04T11:53:33;10.90;;;2.78;;
69841;SDS011;57138;51.326;-0.068;2023-02-04T11:56:26;9.68;;;2.70;;
69841;SDS011;57138;51.326;-0.068;2023-02-04T11:58:54;9.10;;;2.25;;
69841;SDS011;57138;51.326;-0.068;2023-02-04T12:01:23;6.95;;;3.10;;
69841;SDS011;57138;51.326;-0.068;2023-02-04T12:03:58;8.90;;;2.30;;
69841;SDS011;57138;51.326;-0.068;2023-02-04T12:06:27;9.48;;;1.95;;
69841;SDS011;57138;51.326;-0.068;2023-02-04T12:11:54;8.10;;;1.98;;
69841;SDS011;57138;51.326;-0.068;2023-02-04T12:14:26;8.18;;;2.08;;
69841;SDS011;57138;51.326;-0.068;2023-02-04T12:16:53;8.98;;;2.28;;
69841;SDS011;57138;51.326;-0.068;2023-02-04T12:19:20;7.68;;;2.00;;
69841;SDS011;57138;51.326;-0.068;2023-02-04T12:21:49;8.18;;;2.00;;
69841;SDS011;57138;51.326;-0.068;2023-02-04T12:24:14;10.75;;;2.70;;
69841;SDS011;57138;51.326;-0.068;2023-02-04T12:26:40;6.70;;;2.20;;
69841;SDS011;57138;51.326;-0.068;2023-02-04T12:29:06;12.38;;;2.47;;
69841;SDS011;57138;51.326;-0.068;2023-02-04T12:31:44;8.40;;;2.60;;
69841;SDS011;57138;51.326;-0.068;2023-02-04T12:34:32;10.95;;;2.70;;
69841;SDS011;57138;51.326;-0.068;2023-02-04T12:37:04;9.63;;;2.42;;
69841;SDS011;57138;51.326;-0.068;2023-02-04T12:39:29;10.65;;;3.08;;
69841;SDS011;57138;51.326;-0.068;2023-02-04T12:47:49;10.77;;;2.17;;
69841;SDS011;57138;51.326;-0.068;2023-02-04T12:50:18;9.43;;;2.08;;
69841;SDS011;57138;51.326;-0.068;2023-02-04T12:52:58;12.23;;;2.28;;
69841;SDS011;57138;51.326;-0.068;2023-02-04T12:55:25;10.10;;;2.08;;
69841;SDS011;57138;51.326;-0.068;2023-02-04T12:57:55;6.18;;;1.90;;
69841;SDS011;57138;51.326;-0.068;2023-02-04T13:00:20;14.52;;;3.25;;
69841;SDS011;57138;51.326;-0.068;2023-02-04T13:02:46;7.32;;;2.83;;
69841;SDS011;57138;51.326;-0.068;2023-02-04T13:05:15;13.98;;;3.33;;
69841;SDS011;57138;51.326;-0.068;2023-02-04T13:07:41;7.88;;;2.67;;
69841;SDS011;57138;51.326;-0.068;2023-02-04T13:10:07;8.73;;;1.90;;
69841;SDS011;57138;51.326;-0.068;2023-02-04T13:12:37;8.48;;;2.35;;
69841;SDS011;57138;51.326;-0.068;2023-02-04T13:15:03;9.60;;;2.65;;
69841;SDS011;57138;51.326;-0.068;2023-02-04T13:17:41;13.52;;;2.72;;
69841;SDS011;57138;51.326;-0.068;2023-02-04T13:20:07;10.82;;;2.17;;
69841;SDS011;57138;51.326;-0.068;2023-02-04T13:22:36;10.05;;;2.40;;
69841;SDS011;57138;51.326;-0.068;2023-02-04T13:25:02;13.35;;;3.13;;
69841;SDS011;57138;51.326;-0.068;2023-02-04T13:27:28;13.20;;;3.08;;
69841;SDS011;57138;51.326;-0.068;2023-02-04T13:29:55;8.13;;;2.97;;
69841;SDS011;57138;51.326;-0.068;2023-02-04T13:32:21;7.47;;;3.13;;
69841;SDS011;57138;51.326;-0.068;2023-02-04T13:34:47;10.82;;;1.90;;
69841;SDS011;57138;51.326;-0.068;2023-02-04T13:37:15;8.00;;;2.15;;
69841;SDS011;57138;51.326;-0.068;2023-02-04T13:40:02;11.40;;;2.30;;
69841;SDS011;57138;51.326;-0.068;2023-02-04T13:42:28;8.60;;;2.45;;
69841;SDS011;57138;51.326;-0.068;2023-02-04T13:44:56;8.07;;;1.85;;
69841;SDS011;57138;51.326;-0.068;2023-02-04T13:47:22;9.00;;;1.85;;
69841;SDS011;57138;51.326;-0.068;2023-02-04T13:49:47;10.85;;;2.20;;
69841;SDS011;57138;51.326;-0.068;2023-02-04T13:52:13;7.05;;;3.45;;
69841;SDS011;57138;51.326;-0.068;2023-02-04T13:54:41;8.00;;;2.30;;
69841;SDS011;57138;51.326;-0.068;2023-02-04T13:57:07;8.85;;;1.83;;
69841;SDS011;57138;51.326;-0.068;2023-02-04T13:59:32;6.78;;;1.98;;
69841;SDS011;57138;51.326;-0.068;2023-02-04T14:02:01;13.10;;;1.83;;
69841;SDS011;57138;51.326;-0.068;2023-02-04T14:04:27;11.05;;;2.97;;
69841;SDS011;57138;51.326;-0.068;2023-02-04T14:06:55;8.32;;;2.13;;
69841;SDS011;57138;51.326;-0.068;2023-02-04T14:09:26;6.82;;;2.10;;
69841;SDS011;57138;51.326;-0.068;2023-02-04T14:11:51;8.32;;;2.42;;
69841;SDS011;57138;51.326;-0.068;2023-02-04T14:14:17;7.50;;;2.55;;
69841;SDS011;57138;51.326;-0.068;2023-02-04T14:16:45;9.00;;;2.67;;
69841;SDS011;57138;51.326;-0.068;2023-02-04T14:19:11;9.25;;;2.58;;
69841;SDS011;57138;51.326;-0.068;2023-02-04T14:21:41;14.63;;;2.90;;
69841;SDS011;57138;51.326;-0.068;2023-02-04T14:24:06;9.05;;;2.92;;
69841;SDS011;57138;51.326;-0.068;2023-02-04T14:26:32;9.60;;;2.17;;
69841;SDS011;57138;51.326;-0.068;2023-02-04T14:28:57;12.30;;;2.63;;
69841;SDS011;57138;51.326;-0.068;2023-02-04T14:31:23;15.20;;;2.95;;
69841;SDS011;57138;51.326;-0.068;2023-02-04T14:33:49;6.32;;;1.60;;
69841;SDS011;57138;51.326;-0.068;2023-02-04T14:36:18;13.88;;;3.45;;
69841;SDS011;57138;51.326;-0.068;2023-02-04T14:38:46;6.63;;;1.73;;
69841;SDS011;57138;51.326;-0.068;2023-02-04T14:41:11;7.80;;;1.83;;
69841;SDS011;57138;51.326;-0.068;2023-02-04T14:43:40;17.48;;;5.97;;
69841;SDS011;57138;51.326;-0.068;2023-02-04T14:46:06;10.88;;;1.95;;
69841;SDS011;57138;51.326;-0.068;2023-02-04T14:48:31;6.65;;;1.13;;
69841;SDS011;57138;51.326;-0.068;2023-02-04T14:50:58;10.52;;;3.05;;
69841;SDS011;57138;51.326;-0.068;2023-02-04T14:53:23;8.35;;;1.25;;
69841;SDS011;57138;51.326;-0.068;2023-02-04T14:55:49;7.80;;;1.88;;